Shakopee, MN

10:39 PM CDT on July 04, 2015 (GMT -0500)
KMNSHAKO1 | | Change Station
CLOSE
Current Station
Personal Weather Station
Location: Shakopee, MN
Elevation: 807 ft
Nearby Weather Stations

Elev 807 ft 44.78 °N, 93.53 °W | Updated 0 second ago

Clear
Clear
72.3 °F
Feels Like 75 °F
N
3.8
Wind Variable Wind from South
Gusts 3.8 mph

Today
High -- | Low -- °F
--% Chance of Precip.
Yesterday
High -- | Low -- °F
Precip. -- in
5:33 AM 9:02 PM
Waning Gibbous, 88% visible
Pressure 29.89 in
Visibility 7.0 miles
Clouds Clear
Heat Index 75 °F
Dew Point 62 °F
Humidity 71%
Rainfall 0.00 in
Snow Depth Not available.
UV 0 out of 12
Pollen 4.20 out of 12
Air Quality Not available.
Flu Activity Not available.
METAR KFCM 050253Z AUTO 19007KT 7SM CLR 23/17 A2990 RMK AO2 SLP120 T02330172 53004

More Conditions Fewer Conditions

Pressure 29.89 in
Visibility 7.0 miles
Clouds Clear
Heat Index 75 °F
Dew Point 62 °F
Humidity 71%
Rainfall 0.00 in
Snow Depth Not available.
UV 0 out of 12
Pollen 4.20 out of 12
Air Quality Not available.
Flu Activity Not available.
METAR KFCM 050253Z AUTO 19007KT 7SM CLR 23/17 A2990 RMK AO2 SLP120 T02330172 53004

More Conditions Fewer Conditions

10-Day Weather Forecast

×

Almanac

Astronomy

Jul. 04, 2015 Rise Set
Actual Time
Civil Twilight
Nautical Twilight
Astronomical Twilight
Moon
Length of Visible Light
Length of Day
Tomorrow will be .
, % of the Moon is Illuminated

Today's Extremes

State Highs State Lows

Community

WunderPhotos

Upload Photos

1,835,182 photos uploaded!

WunderBlogs® & News

Nearby

Air Quality

  Air Quality AQ Index Pollutant
Not available.

Snow Depth

Station Depth Elevation

Earthquake Activity

City Distance Mag. Time & Date
Minimum magnitude displayed is 2.5.

Coastal Water Temperatures

Place Temperature

Stations

Nearby Weather Stations

Station Location Temp. Windchill Dew Point Humidity Wind Precip. Elev Updated Type